Time;durP1;ratioP1;P1;durP2;ratioP2;P2;SDS_P1;SDS_P2;PMS_P1;PMS_P2;Temp;Humidity;BMP_temperature;BMP_pressure;BME280_temperature;BME280_humidity;BME280_pressure;Samples;Min_cycle;Max_cycle;Signal;HPM_P1;HPM_P2
2021/01/24 00:01:00;;;;;;;3.33;3.03;;;;;;;3.64;86.97;96420.94;4986738;28;20227;-80
2021/01/24 00:03:26;;;;;;;5.40;3.55;;;;;;;3.68;86.92;96427.69;4963427;28;20224;-81
2021/01/24 00:05:53;;;;;;;3.63;3.33;;;;;;;3.73;87.16;96425.50;4936306;28;20274;-86
2021/01/24 00:08:19;;;;;;;3.28;2.97;;;;;;;3.84;87.62;96422.81;4948236;28;20238;-85
2021/01/24 00:10:46;;;;;;;3.80;3.03;;;;;;;3.99;86.75;96426.03;4971043;28;20196;-84
2021/01/24 00:13:12;;;;;;;3.38;3.00;;;;;;;4.06;86.55;96432.53;4952750;28;20220;-85
2021/01/24 00:15:38;;;;;;;3.97;3.50;;;;;;;4.00;86.10;96433.88;4966124;28;20785;-84
2021/01/24 00:18:04;;;;;;;3.90;3.50;;;;;;;4.00;86.15;96436.53;4971526;28;20251;-82
2021/01/24 00:20:31;;;;;;;3.22;2.90;;;;;;;3.97;86.44;96444.75;4975765;28;20184;-84
2021/01/24 00:22:57;;;;;;;3.50;3.20;;;;;;;3.90;86.56;96448.03;4972291;28;20191;-85
2021/01/24 00:25:28;;;;;;;3.55;3.22;;;;;;;3.79;86.94;96451.56;4955147;28;20274;-85
2021/01/24 00:27:55;;;;;;;3.70;3.35;;;;;;;3.84;87.14;96444.06;4968725;28;20234;-87
2021/01/24 00:30:21;;;;;;;3.70;3.40;;;;;;;3.84;87.25;96457.34;4952018;28;20243;-85
2021/01/24 00:32:48;;;;;;;6.75;3.83;;;;;;;4.04;86.77;96453.91;4974963;28;20224;-86
2021/01/24 00:35:14;;;;;;;3.35;3.05;;;;;;;3.96;86.15;96452.84;4971604;28;20230;-84
2021/01/24 00:37:41;;;;;;;3.45;3.15;;;;;;;4.03;85.18;96452.22;4953712;28;20232;-85
2021/01/24 00:40:08;;;;;;;4.10;3.65;;;;;;;4.09;84.99;96449.06;4959786;28;20236;-85
2021/01/24 00:42:35;;;;;;;2.85;2.63;;;;;;;4.08;83.65;96462.47;4965452;28;20544;-84
2021/01/24 00:45:04;;;;;;;3.00;2.80;;;;;;;4.07;83.17;96464.31;4970305;28;20235;-84
2021/01/24 00:47:31;;;;;;;2.88;2.28;;;;;;;3.95;83.12;96472.44;4954100;28;20196;-83
2021/01/24 00:49:57;;;;;;;3.60;2.92;;;;;;;3.93;82.85;96474.38;4985822;28;20216;-82
2021/01/24 00:52:23;;;;;;;2.72;2.53;;;;;;;3.78;83.44;96475.63;4953229;28;20824;-83
2021/01/24 00:54:50;;;;;;;2.35;2.15;;;;;;;3.63;83.84;96469.72;4969863;28;20246;-84
2021/01/24 00:57:16;;;;;;;2.75;2.17;;;;;;;3.52;83.93;96480.34;4955358;28;20227;-83
2021/01/24 00:59:42;;;;;;;3.33;3.03;;;;;;;3.61;84.30;96479.59;4969448;28;20246;-84
2021/01/24 01:02:08;;;;;;;2.75;2.55;;;;;;;3.41;83.55;96476.88;4958108;28;20228;-82
2021/01/24 01:04:35;;;;;;;2.80;2.60;;;;;;;3.42;83.86;96484.72;4974379;28;20227;-83
2021/01/24 01:07:01;;;;;;;3.35;2.97;;;;;;;3.49;83.01;96499.22;4958447;28;20260;-84
2021/01/24 01:09:27;;;;;;;2.15;1.90;;;;;;;3.29;83.22;96499.91;4975204;28;20196;-81
2021/01/24 01:11:53;;;;;;;2.70;2.33;;;;;;;3.23;83.49;96502.22;4970414;28;20319;-83
2021/01/24 01:14:20;;;;;;;3.67;2.50;;;;;;;3.20;83.48;96515.72;4967623;28;20227;-82
2021/01/24 01:16:46;;;;;;;3.30;3.00;;;;;;;3.29;83.75;96512.34;5004164;28;20182;-77
2021/01/24 01:19:12;;;;;;;2.55;2.33;;;;;;;3.30;83.18;96511.38;4994469;28;20215;-80
2021/01/24 01:21:40;;;;;;;3.40;3.10;;;;;;;3.30;82.82;96522.00;4981252;28;20211;-81
2021/01/24 01:24:06;;;;;;;2.42;2.10;;;;;;;3.29;82.33;96534.41;4973556;28;20236;-83
2021/01/24 01:26:33;;;;;;;3.30;2.50;;;;;;;3.29;82.16;96539.72;4965713;28;20255;-82
2021/01/24 01:28:59;;;;;;;3.20;2.85;;;;;;;3.35;82.35;96531.28;4981616;28;20206;-80
2021/01/24 01:31:25;;;;;;;2.25;2.03;;;;;;;3.19;81.53;96549.38;4983467;28;20283;-81
2021/01/24 01:33:52;;;;;;;2.50;2.00;;;;;;;3.12;82.28;96556.13;4962472;28;20314;-80
2021/01/24 01:36:19;;;;;;;3.00;2.60;;;;;;;3.28;82.56;96551.31;4981990;28;20219;-82
2021/01/24 01:38:45;;;;;;;3.17;2.15;;;;;;;3.38;82.12;96557.63;4966557;28;20595;-81
2021/01/24 01:41:11;;;;;;;2.40;2.20;;;;;;;3.35;81.47;96560.50;4970029;28;20203;-80
2021/01/24 01:43:37;;;;;;;2.13;1.90;;;;;;;3.27;81.70;96575.34;4979252;28;20242;-83
2021/01/24 01:46:04;;;;;;;2.63;1.55;;;;;;;3.33;81.05;96575.72;4958325;28;20251;-84
2021/01/24 01:48:32;;;;;;;2.65;1.73;;;;;;;3.16;81.10;96584.13;4970351;28;20224;-82
2021/01/24 01:50:58;;;;;;;2.00;1.80;;;;;;;3.14;81.96;96586.06;4961260;28;20324;-81
2021/01/24 01:53:25;;;;;;;1.52;1.42;;;;;;;3.11;81.98;96588.09;4959319;28;20199;-82
2021/01/24 01:55:51;;;;;;;1.95;1.85;;;;;;;3.03;82.83;96585.19;4966554;28;20217;-80
2021/01/24 01:58:17;;;;;;;2.30;1.90;;;;;;;2.99;82.46;96592.53;4967167;28;20223;-81
2021/01/24 02:00:44;;;;;;;2.05;1.88;;;;;;;2.93;82.75;96587.69;4949034;28;20288;-82
2021/01/24 02:03:22;;;;;;;1.80;1.70;;;;;;;2.95;83.14;96588.41;4955276;28;20239;-82
2021/01/24 02:06:06;;;;;;;1.33;1.23;;;;;;;2.92;82.33;96586.00;4971989;28;20224;-81
2021/01/24 02:08:45;;;;;;;1.80;1.70;;;;;;;2.94;82.00;96597.34;4970134;28;20174;-81
2021/01/24 02:11:15;;;;;;;1.70;1.60;;;;;;;3.10;82.10;96594.38;5000924;28;20307;-80
2021/01/24 02:13:47;;;;;;;3.80;1.90;;;;;;;3.00;81.55;96599.53;4964346;28;20218;-83
2021/01/24 02:16:16;;;;;;;1.70;1.60;;;;;;;2.91;82.01;96615.31;4957368;28;20261;-84
2021/01/24 02:18:46;;;;;;;2.30;1.70;;;;;;;2.98;82.01;96605.91;4966630;28;20287;-83
2021/01/24 02:21:28;;;;;;;2.15;1.83;;;;;;;2.98;81.87;96629.81;4950030;28;20227;-82
2021/01/24 02:23:58;;;;;;;2.10;1.90;;;;;;;2.97;81.78;96628.13;4945887;28;20220;-81
2021/01/24 02:26:39;;;;;;;2.55;2.35;;;;;;;3.05;81.51;96645.16;4932254;28;20205;-81
2021/01/24 02:29:28;;;;;;;2.85;2.53;;;;;;;2.98;81.49;96638.63;4964577;28;20210;-81
2021/01/24 02:32:00;;;;;;;2.28;2.05;;;;;;;2.96;82.26;96647.66;4968554;28;20231;-81
2021/01/24 02:34:30;;;;;;;2.70;2.45;;;;;;;2.83;81.52;96653.00;4967676;28;20219;-80
2021/01/24 02:36:59;;;;;;;3.15;2.78;;;;;;;2.75;82.13;96651.88;4951157;28;20231;-83
2021/01/24 02:39:26;;;;;;;3.08;2.78;;;;;;;2.70;82.47;96662.00;4973023;28;20250;-83
2021/01/24 02:41:53;;;;;;;2.55;2.10;;;;;;;2.71;82.54;96661.88;4967882;28;20229;-84
2021/01/24 02:44:31;;;;;;;3.80;2.83;;;;;;;2.77;82.02;96674.69;4947995;28;20301;-83
2021/01/24 02:46:57;;;;;;;2.92;2.30;;;;;;;2.59;82.50;96677.84;4973699;28;20184;-81
2021/01/24 02:49:28;;;;;;;2.72;2.42;;;;;;;2.59;82.60;96683.16;4994491;28;20235;-81
2021/01/24 02:51:54;;;;;;;2.97;2.30;;;;;;;2.58;82.15;96692.91;4987597;28;20234;-79
2021/01/24 02:54:22;;;;;;;3.60;3.20;;;;;;;2.59;82.24;96702.59;4968405;28;20234;-83
2021/01/24 02:56:48;;;;;;;4.00;3.13;;;;;;;2.57;81.94;96706.31;4953188;28;20220;-82
2021/01/24 02:59:14;;;;;;;4.10;3.10;;;;;;;2.54;81.53;96712.66;4971568;28;20202;-81
2021/01/24 03:01:41;;;;;;;4.45;2.85;;;;;;;2.59;81.46;96713.19;4962447;28;20223;-83
2021/01/24 03:04:08;;;;;;;3.38;3.08;;;;;;;2.54;81.72;96722.41;4964816;28;20345;-83
2021/01/24 03:06:36;;;;;;;4.05;3.60;;;;;;;2.67;81.16;96729.41;4965392;28;20219;-78
2021/01/24 03:09:03;;;;;;;4.25;3.63;;;;;;;2.76;80.94;96727.88;4971442;28;20240;-82
2021/01/24 03:11:31;;;;;;;6.10;3.95;;;;;;;2.64;81.23;96740.22;4946336;28;20197;-83
2021/01/24 03:14:01;;;;;;;4.45;4.05;;;;;;;2.54;82.13;96743.63;4978368;28;20222;-83
2021/01/24 03:16:29;;;;;;;6.75;4.50;;;;;;;2.48;83.00;96741.41;5003973;28;20245;-80
2021/01/24 03:18:58;;;;;;;4.80;4.13;;;;;;;2.56;83.05;96747.88;4992708;28;20242;-78
2021/01/24 03:21:25;;;;;;;6.88;5.30;;;;;;;2.48;83.15;96759.97;4988468;28;20220;-78
2021/01/24 03:23:53;;;;;;;8.63;6.20;;;;;;;2.50;83.59;96758.09;4995427;28;20257;-79
2021/01/24 03:26:20;;;;;;;6.70;5.00;;;;;;;2.52;83.13;96757.00;4975328;28;20192;-79
2021/01/24 03:28:46;;;;;;;9.10;5.85;;;;;;;2.47;83.30;96758.28;4980527;28;20198;-79
2021/01/24 03:31:12;;;;;;;8.50;5.82;;;;;;;2.45;83.28;96761.03;4991016;28;20215;-81
2021/01/24 03:33:39;;;;;;;9.73;6.65;;;;;;;2.49;82.87;96773.16;4987401;28;20333;-79
2021/01/24 03:36:06;;;;;;;10.70;6.97;;;;;;;2.54;83.12;96771.03;4984673;28;20315;-82
2021/01/24 03:38:32;;;;;;;9.55;7.50;;;;;;;2.49;82.48;96777.59;4967014;28;20210;-83
2021/01/24 03:40:58;;;;;;;9.85;6.60;;;;;;;2.44;81.39;96767.31;4957279;28;20199;-82
2021/01/24 03:43:25;;;;;;;10.80;8.02;;;;;;;2.60;81.21;96770.59;4968872;28;20231;-82
2021/01/24 03:45:51;;;;;;;9.35;6.88;;;;;;;2.64;80.41;96772.03;4944669;28;20318;-82
2021/01/24 03:48:17;;;;;;;9.35;6.50;;;;;;;2.58;79.79;96776.94;4980610;28;20278;-82
2021/01/24 03:50:43;;;;;;;8.80;6.28;;;;;;;2.59;79.27;96783.94;4987669;28;20231;-80
2021/01/24 03:53:09;;;;;;;12.30;7.63;;;;;;;2.58;79.54;96788.38;4962354;28;20196;-82
2021/01/24 03:55:36;;;;;;;12.95;7.60;;;;;;;2.66;79.30;96786.06;4953730;29;20227;-81
2021/01/24 03:58:02;;;;;;;9.75;7.53;;;;;;;2.63;78.45;96798.69;4973349;28;20218;-80
2021/01/24 04:00:28;;;;;;;14.85;8.18;;;;;;;2.61;78.39;96793.50;4963388;28;20229;-80
2021/01/24 04:02:54;;;;;;;12.68;7.57;;;;;;;2.64;78.89;96798.56;4965574;28;20238;-79
2021/01/24 04:05:20;;;;;;;14.57;6.80;;;;;;;2.64;78.79;96809.19;4991914;28;20226;-80
2021/01/24 04:07:46;;;;;;;12.73;6.05;;;;;;;2.53;78.01;96816.19;4980735;28;20195;-82
2021/01/24 04:10:13;;;;;;;9.35;5.90;;;;;;;2.50;77.53;96817.25;4979383;28;20234;-81
2021/01/24 04:12:39;;;;;;;15.15;6.88;;;;;;;2.47;78.28;96822.81;4958874;28;20247;-80
2021/01/24 04:15:06;;;;;;;11.50;6.40;;;;;;;2.57;78.43;96823.00;4982186;28;20323;-80
2021/01/24 04:17:33;;;;;;;12.88;6.80;;;;;;;2.61;77.90;96827.13;4974933;28;20195;-80
2021/01/24 04:19:59;;;;;;;8.38;6.00;;;;;;;2.48;77.38;96831.59;4956190;28;20204;-82
2021/01/24 04:22:25;;;;;;;13.80;7.30;;;;;;;2.48;77.69;96847.50;4970768;28;20626;-82
2021/01/24 04:24:51;;;;;;;10.88;6.93;;;;;;;2.48;77.32;96851.00;4972209;28;20250;-79
2021/01/24 04:27:18;;;;;;;10.85;6.15;;;;;;;2.45;77.03;96845.91;4978880;28;20275;-78
2021/01/24 04:29:44;;;;;;;7.72;6.00;;;;;;;2.49;76.88;96863.31;4973190;28;20215;-79
2021/01/24 04:32:10;;;;;;;9.27;5.53;;;;;;;2.42;76.22;96871.78;4989590;28;20216;-79
2021/01/24 04:34:36;;;;;;;10.30;5.63;;;;;;;2.43;75.93;96862.88;4979580;28;20253;-81
2021/01/24 04:37:02;;;;;;;5.80;3.95;;;;;;;2.40;74.19;96868.41;4961136;28;20714;-82
2021/01/24 04:39:28;;;;;;;9.13;5.45;;;;;;;2.38;73.81;96865.84;4967759;28;20298;-83
2021/01/24 04:41:55;;;;;;;5.35;4.13;;;;;;;2.39;73.73;96872.00;4954258;28;20239;-81
2021/01/24 04:44:22;;;;;;;12.85;5.85;;;;;;;2.44;73.86;96873.38;4962497;28;20227;-85
2021/01/24 04:46:49;;;;;;;7.25;5.35;;;;;;;2.37;74.31;96885.38;4945651;29;20560;-82
2021/01/24 04:49:17;;;;;;;7.95;5.35;;;;;;;2.25;74.78;96885.38;4979122;28;20224;-84
2021/01/24 04:51:43;;;;;;;5.80;4.60;;;;;;;2.23;75.27;96889.91;4964877;28;20220;-83
2021/01/24 04:54:11;;;;;;;8.35;5.82;;;;;;;2.26;75.96;96890.53;4984993;28;20226;-82
2021/01/24 04:56:38;;;;;;;10.10;5.15;;;;;;;2.20;76.23;96885.66;4958762;28;20195;-84
2021/01/24 04:59:05;;;;;;;7.40;5.50;;;;;;;2.20;75.53;96888.31;4967914;28;20204;-82
2021/01/24 05:01:32;;;;;;;8.70;5.35;;;;;;;2.21;75.11;96884.72;4955554;28;20764;-83
2021/01/24 05:03:59;;;;;;;8.90;5.10;;;;;;;2.23;74.43;96876.66;4970842;28;20706;-83
2021/01/24 05:06:26;;;;;;;5.80;4.88;;;;;;;2.28;74.55;96890.44;4971421;28;20234;-81
2021/01/24 05:08:54;;;;;;;9.90;5.78;;;;;;;2.29;73.83;96877.09;4969846;28;20722;-81
2021/01/24 05:11:20;;;;;;;9.00;5.07;;;;;;;2.34;73.09;96890.91;4955429;28;20203;-82
2021/01/24 05:13:46;;;;;;;8.13;5.63;;;;;;;2.41;73.44;96891.31;4961106;28;20219;-80
2021/01/24 05:16:12;;;;;;;5.75;4.57;;;;;;;2.23;72.80;96882.81;4973915;28;20234;-80
2021/01/24 05:18:40;;;;;;;4.97;3.50;;;;;;;2.20;73.08;96898.91;4968306;28;20230;-82
2021/01/24 05:21:08;;;;;;;6.10;4.93;;;;;;;2.21;73.02;96899.78;4968407;28;20230;-84
2021/01/24 05:23:37;;;;;;;7.32;4.57;;;;;;;2.24;72.81;96900.41;4963056;28;20200;-83
2021/01/24 05:26:08;;;;;;;9.95;5.45;;;;;;;2.24;73.08;96897.75;4957195;28;20219;-83
2021/01/24 05:28:45;;;;;;;6.82;4.82;;;;;;;2.23;73.18;96897.84;4965436;28;20739;-84
2021/01/24 05:31:15;;;;;;;6.10;4.65;;;;;;;2.33;73.37;96913.03;4952484;28;20230;-84
2021/01/24 05:33:43;;;;;;;4.88;3.85;;;;;;;2.27;73.08;96910.81;4962935;28;20231;-83
2021/01/24 05:36:10;;;;;;;7.55;5.18;;;;;;;2.30;73.58;96926.50;4956108;28;20216;-83
2021/01/24 05:38:36;;;;;;;6.93;5.32;;;;;;;2.11;74.51;96927.84;4964376;28;20199;-83
2021/01/24 05:41:08;;;;;;;9.25;5.80;;;;;;;2.05;75.39;96929.13;4972278;28;20192;-81
2021/01/24 05:43:40;;;;;;;7.88;5.03;;;;;;;2.05;75.79;96925.63;4953055;28;20238;-81
2021/01/24 05:46:07;;;;;;;9.25;5.55;;;;;;;2.01;76.03;96932.06;4964967;28;20569;-83
2021/01/24 05:48:35;;;;;;;7.47;5.07;;;;;;;2.03;76.21;96931.03;4958187;28;20227;-84
2021/01/24 05:51:03;;;;;;;10.30;6.40;;;;;;;2.08;75.96;96926.28;4995718;28;20221;-81
2021/01/24 05:53:36;;;;;;;6.47;5.47;;;;;;;1.93;75.50;96929.09;4988454;28;20184;-81
2021/01/24 05:56:08;;;;;;;8.88;5.80;;;;;;;2.03;75.45;96938.97;4965951;28;20242;-83
2021/01/24 05:58:34;;;;;;;8.32;5.28;;;;;;;2.03;75.61;96944.28;4953215;28;20238;-83
2021/01/24 06:01:00;;;;;;;5.75;5.22;;;;;;;1.98;74.40;96949.03;4953683;28;20635;-82
2021/01/24 06:03:26;;;;;;;8.90;5.70;;;;;;;2.10;74.93;96939.41;4950330;28;20220;-83
2021/01/24 06:05:52;;;;;;;7.20;4.93;;;;;;;2.12;74.48;96956.91;4972484;28;20237;-84
2021/01/24 06:08:19;;;;;;;10.20;5.00;;;;;;;2.10;73.54;96966.75;4958041;28;20227;-82
2021/01/24 06:10:45;;;;;;;6.07;4.82;;;;;;;2.13;73.96;96963.06;4961976;28;20202;-82
2021/01/24 06:13:30;;;;;;;7.78;5.90;;;;;;;2.10;74.10;96969.41;4982340;28;20659;-81
2021/01/24 06:16:10;;;;;;;4.90;3.72;;;;;;;2.08;74.16;96973.97;4975527;28;20286;-81
2021/01/24 06:18:59;;;;;;;7.13;5.30;;;;;;;2.08;74.49;96973.97;4963102;28;20227;-82
2021/01/24 06:21:30;;;;;;;7.68;5.68;;;;;;;2.17;74.59;96968.06;4962823;28;20306;-84
2021/01/24 06:24:38;;;;;;;10.13;6.28;;;;;;;2.21;74.90;96977.50;4954286;28;20228;-84
2021/01/24 06:27:07;;;;;;;5.60;4.28;;;;;;;2.05;74.69;96987.41;4961068;28;20219;-84
2021/01/24 06:29:35;;;;;;;6.72;5.13;;;;;;;2.12;74.74;96987.88;4976327;28;20180;-80
2021/01/24 06:32:01;;;;;;;8.20;5.30;;;;;;;2.14;75.25;96993.91;4974538;28;20188;-81
2021/01/24 06:34:40;;;;;;;7.43;6.35;;;;;;;2.07;75.21;96993.44;4966508;28;20223;-81
2021/01/24 06:37:08;;;;;;;7.50;4.45;;;;;;;2.14;74.50;97005.38;4982543;28;20219;-84
2021/01/24 06:40:02;;;;;;;12.75;5.78;;;;;;;2.15;75.01;96993.81;4959867;28;20245;-84
2021/01/24 06:42:46;;;;;;;8.82;5.05;;;;;;;2.16;74.35;96998.16;4975286;28;20231;-80
2021/01/24 06:45:21;;;;;;;7.68;6.13;;;;;;;2.11;74.54;97005.56;4962194;28;20604;-82
2021/01/24 06:47:48;;;;;;;10.75;6.05;;;;;;;2.20;73.58;97010.25;4951670;28;20306;-83
2021/01/24 06:50:43;;;;;;;6.03;5.18;;;;;;;2.12;74.28;97006.44;4947629;29;20228;-81
2021/01/24 06:53:18;;;;;;;6.80;5.25;;;;;;;2.17;73.98;97021.06;4973741;28;20223;-82
2021/01/24 06:56:06;;;;;;;6.88;5.68;;;;;;;2.08;74.27;97013.72;4968139;28;20237;-82
2021/01/24 06:58:45;;;;;;;6.53;4.75;;;;;;;2.00;74.78;97009.88;4958346;28;20306;-83
2021/01/24 07:01:24;;;;;;;9.23;5.93;;;;;;;2.07;75.40;97030.56;4957972;28;20266;-81
2021/01/24 07:04:35;;;;;;;9.38;6.60;;;;;;;2.17;75.40;97031.66;4987158;28;20647;-83
2021/01/24 07:07:21;;;;;;;8.68;5.22;;;;;;;1.93;75.59;97035.91;4958452;28;20223;-82
2021/01/24 07:09:48;;;;;;;8.48;5.53;;;;;;;2.02;75.63;97048.59;4957536;28;20215;-83
2021/01/24 07:12:14;;;;;;;10.35;5.00;;;;;;;1.93;75.05;97049.16;4950006;28;20233;-83
2021/01/24 07:14:41;;;;;;;8.10;5.88;;;;;;;1.94;75.60;97053.50;4956051;28;20294;-81
2021/01/24 07:17:10;;;;;;;9.57;6.20;;;;;;;1.98;75.85;97059.44;4968198;28;20227;-83
2021/01/24 07:19:52;;;;;;;12.20;6.13;;;;;;;1.94;75.61;97066.75;4953354;28;20709;-83
2021/01/24 07:22:21;;;;;;;7.38;5.57;;;;;;;1.91;76.21;97071.41;4949829;28;20234;-80
2021/01/24 07:24:49;;;;;;;11.38;6.65;;;;;;;1.90;76.51;97073.22;4957827;28;20295;-79
2021/01/24 07:27:17;;;;;;;8.98;6.05;;;;;;;1.93;76.81;97080.94;4972644;28;20230;-81
2021/01/24 07:29:44;;;;;;;9.50;6.68;;;;;;;1.96;76.65;97080.78;4964001;28;20218;-81
2021/01/24 07:32:15;;;;;;;9.80;7.00;;;;;;;2.07;76.47;97082.72;4991862;28;20194;-79
2021/01/24 07:34:44;;;;;;;7.32;4.28;;;;;;;1.75;76.16;97086.59;4974950;28;20247;-79
2021/01/24 07:37:13;;;;;;;8.57;6.03;;;;;;;1.84;77.07;97091.28;4967773;28;20246;-84
2021/01/24 07:39:41;;;;;;;9.00;6.60;;;;;;;1.83;76.88;97090.47;4954022;28;20276;-79
2021/01/24 07:42:07;;;;;;;8.20;6.20;;;;;;;1.95;76.62;97102.94;4985549;28;20231;-81
2021/01/24 07:44:37;;;;;;;11.23;7.00;;;;;;;1.94;76.69;97103.84;4953682;28;20218;-79
2021/01/24 07:47:04;;;;;;;9.52;7.57;;;;;;;1.93;76.17;97102.16;4974686;28;20195;-83
2021/01/24 07:49:31;;;;;;;9.27;6.15;;;;;;;1.86;76.87;97118.56;4968416;28;20219;-81
2021/01/24 07:51:57;;;;;;;10.10;7.25;;;;;;;1.91;77.06;97117.31;4959912;28;20292;-83
2021/01/24 07:54:24;;;;;;;11.00;6.82;;;;;;;1.91;76.48;97119.09;4947154;28;20239;-83
2021/01/24 07:56:51;;;;;;;11.38;7.45;;;;;;;1.95;76.69;97124.13;4963135;28;20572;-82
2021/01/24 07:59:17;;;;;;;10.43;7.45;;;;;;;2.04;75.78;97120.00;4969890;28;20663;-82
2021/01/24 08:01:44;;;;;;;11.13;6.70;;;;;;;1.97;76.40;97116.91;4970163;28;20216;-85
2021/01/24 08:04:10;;;;;;;9.45;7.07;;;;;;;2.06;75.93;97123.44;4948457;28;20283;-83
2021/01/24 08:06:38;;;;;;;9.10;6.35;;;;;;;2.05;75.10;97127.88;4968561;28;20211;-80
2021/01/24 08:09:08;;;;;;;10.60;7.15;;;;;;;2.07;75.65;97136.56;4986554;28;20231;-79
2021/01/24 08:11:35;;;;;;;8.48;6.35;;;;;;;2.00;75.49;97145.84;4960173;28;20208;-80
2021/01/24 08:14:03;;;;;;;9.15;6.15;;;;;;;2.12;75.16;97136.31;4968029;28;20219;-80
2021/01/24 08:16:34;;;;;;;10.07;6.72;;;;;;;2.14;75.69;97137.91;4975740;28;20223;-79
2021/01/24 08:19:03;;;;;;;9.82;6.35;;;;;;;2.16;75.23;97143.97;4973623;28;20235;-80
2021/01/24 08:21:31;;;;;;;10.30;7.13;;;;;;;2.18;74.67;97150.00;4960199;28;20219;-80
2021/01/24 08:23:57;;;;;;;9.88;6.90;;;;;;;2.23;74.63;97150.56;4977234;28;20223;-81
2021/01/24 08:26:23;;;;;;;9.55;6.55;;;;;;;2.21;74.16;97155.13;4961509;28;20218;-81
2021/01/24 08:28:52;;;;;;;12.05;7.55;;;;;;;2.24;74.23;97152.25;4980105;28;20210;-80
2021/01/24 08:31:19;;;;;;;7.85;5.82;;;;;;;2.24;74.02;97165.53;4953689;28;20229;-79
2021/01/24 08:33:47;;;;;;;7.65;4.93;;;;;;;2.19;73.66;97172.91;4977242;28;20223;-78
2021/01/24 08:36:15;;;;;;;7.47;5.97;;;;;;;2.24;73.78;97178.78;4981948;28;20302;-82
2021/01/24 08:38:44;;;;;;;7.50;5.53;;;;;;;2.14;73.45;97184.75;4956727;28;20231;-82
2021/01/24 08:41:11;;;;;;;9.00;5.22;;;;;;;2.22;73.68;97177.16;4944058;29;20200;-80
2021/01/24 08:43:38;;;;;;;11.52;6.50;;;;;;;2.32;73.44;97181.78;4965716;28;20223;-84
2021/01/24 08:46:26;;;;;;;7.22;5.63;;;;;;;2.26;73.26;97178.69;4975203;28;20816;-83
2021/01/24 08:49:03;;;;;;;6.30;4.68;;;;;;;2.20;73.21;97184.38;4965899;28;20656;-81
2021/01/24 08:51:40;;;;;;;7.22;6.15;;;;;;;2.34;72.37;97198.47;4954138;28;20227;-80
2021/01/24 08:54:34;;;;;;;7.05;5.78;;;;;;;2.36;72.70;97191.25;4948732;28;20215;-80
2021/01/24 08:57:12;;;;;;;9.07;5.63;;;;;;;2.45;71.77;97201.25;4989880;28;20729;-80
2021/01/24 08:59:57;;;;;;;8.38;5.57;;;;;;;2.34;71.97;97200.25;4982167;28;20282;-81
2021/01/24 09:02:41;;;;;;;7.22;5.82;;;;;;;2.37;71.54;97197.44;4963980;28;20203;-80
2021/01/24 09:05:10;;;;;;;8.30;4.93;;;;;;;2.44;71.29;97207.53;4969822;28;20287;-80
2021/01/24 09:07:37;;;;;;;7.88;5.32;;;;;;;2.40;71.64;97207.81;4969248;28;20237;-80
2021/01/24 09:10:17;;;;;;;8.25;6.82;;;;;;;2.46;71.43;97216.25;4984808;28;20225;-78
2021/01/24 09:12:49;;;;;;;10.85;6.20;;;;;;;2.55;70.99;97207.69;4998264;28;20208;-80
2021/01/24 09:15:17;;;;;;;9.55;6.63;;;;;;;2.44;71.14;97220.78;4983296;28;20251;-79
2021/01/24 09:17:43;;;;;;;9.75;7.63;;;;;;;2.64;71.30;97220.34;4968410;28;20319;-81
2021/01/24 09:20:10;;;;;;;8.40;6.30;;;;;;;2.64;71.10;97230.97;4969542;28;20341;-83
2021/01/24 09:22:36;;;;;;;10.20;7.25;;;;;;;2.53;71.25;97227.31;4949337;28;20724;-82
2021/01/24 09:25:04;;;;;;;8.98;6.22;;;;;;;2.48;71.59;97227.59;4965238;28;20764;-80
2021/01/24 09:27:31;;;;;;;8.93;6.60;;;;;;;2.53;71.62;97238.78;4972017;28;20265;-83
2021/01/24 09:29:57;;;;;;;12.75;7.93;;;;;;;2.46;71.64;97237.47;4956937;28;20230;-81
2021/01/24 09:32:23;;;;;;;9.55;6.47;;;;;;;2.48;71.63;97246.16;4959830;28;20252;-81
2021/01/24 09:34:50;;;;;;;8.60;6.00;;;;;;;2.42;71.53;97248.34;4970204;28;20219;-84
2021/01/24 09:37:16;;;;;;;9.75;7.03;;;;;;;2.42;71.14;97249.22;4951339;28;20310;-81
2021/01/24 09:39:42;;;;;;;10.55;7.40;;;;;;;2.47;71.25;97251.56;4969105;28;20235;-81
2021/01/24 09:42:08;;;;;;;11.35;6.97;;;;;;;2.54;70.85;97253.75;4966103;28;20694;-80
2021/01/24 09:44:34;;;;;;;12.55;6.20;;;;;;;2.60;70.95;97265.75;4961794;28;20231;-80
2021/01/24 09:47:00;;;;;;;8.35;6.60;;;;;;;2.62;70.74;97277.97;4951303;28;20203;-82
2021/01/24 09:49:27;;;;;;;13.35;7.13;;;;;;;2.59;71.15;97277.31;4935645;28;20307;-83
2021/01/24 09:51:53;;;;;;;8.43;5.78;;;;;;;2.40;71.11;97287.38;4956556;28;20261;-80
2021/01/24 09:54:19;;;;;;;8.95;6.68;;;;;;;2.52;71.41;97287.44;4943486;28;20234;-82
2021/01/24 09:56:45;;;;;;;7.50;5.50;;;;;;;2.43;71.09;97281.88;4974448;28;20611;-80
2021/01/24 09:59:11;;;;;;;9.18;5.85;;;;;;;2.47;71.05;97294.88;4985316;28;20196;-80
2021/01/24 10:01:38;;;;;;;7.18;5.80;;;;;;;2.58;71.03;97297.66;4992375;28;20209;-79
2021/01/24 10:04:04;;;;;;;6.70;6.00;;;;;;;2.57;71.20;97297.78;4985834;28;20287;-80
2021/01/24 10:06:32;;;;;;;9.68;6.05;;;;;;;2.68;70.31;97304.13;4968331;28;20249;-81
2021/01/24 10:09:00;;;;;;;8.85;7.05;;;;;;;2.75;70.24;97297.47;4974914;28;20228;-83
2021/01/24 10:11:26;;;;;;;8.25;6.60;;;;;;;2.84;70.17;97301.34;4952586;28;20191;-83
2021/01/24 10:13:52;;;;;;;12.77;6.63;;;;;;;3.01;69.29;97320.53;4976864;28;20228;-80
2021/01/24 10:16:19;;;;;;;11.38;6.85;;;;;;;3.18;68.61;97307.03;4959489;28;20343;-84
2021/01/24 10:18:45;;;;;;;8.23;4.90;;;;;;;3.06;68.24;97313.13;4977383;28;20223;-83
2021/01/24 10:21:11;;;;;;;7.88;6.13;;;;;;;3.10;68.26;97317.31;4965897;28;20231;-81
2021/01/24 10:23:39;;;;;;;7.65;5.13;;;;;;;3.09;68.27;97331.50;4951193;28;20203;-81
2021/01/24 10:26:08;;;;;;;8.43;5.22;;;;;;;3.03;68.04;97323.94;4968495;28;20236;-83
2021/01/24 10:28:34;;;;;;;8.32;5.80;;;;;;;3.23;67.54;97320.88;4968759;28;20216;-83
2021/01/24 10:31:01;;;;;;;4.18;3.40;;;;;;;3.01;67.96;97346.25;4980621;28;20235;-80
2021/01/24 10:33:27;;;;;;;6.10;4.15;;;;;;;2.90;67.87;97324.84;4975997;28;20229;-83
2021/01/24 10:35:53;;;;;;;5.00;4.43;;;;;;;3.04;67.86;97335.41;4974006;28;20237;-80
2021/01/24 10:38:21;;;;;;;7.40;5.63;;;;;;;3.03;68.04;97331.06;4989883;28;20184;-79
2021/01/24 10:40:48;;;;;;;7.15;3.75;;;;;;;3.01;68.49;97331.16;4973943;28;20364;-83
2021/01/24 10:43:15;;;;;;;10.00;5.45;;;;;;;3.05;67.80;97340.63;4968882;28;21366;-79
2021/01/24 10:45:41;;;;;;;6.40;3.70;;;;;;;3.02;67.65;97348.78;4990713;28;20208;-81
2021/01/24 10:48:08;;;;;;;6.35;5.15;;;;;;;3.06;67.64;97352.97;4966771;28;20239;-81
2021/01/24 10:50:35;;;;;;;9.88;6.10;;;;;;;3.10;67.82;97353.63;4961872;28;20206;-83
2021/01/24 10:53:05;;;;;;;9.23;4.85;;;;;;;3.16;67.84;97354.06;4986591;28;20210;-82
2021/01/24 10:55:32;;;;;;;9.88;5.95;;;;;;;3.14;67.82;97357.78;4967147;28;20287;-83
2021/01/24 10:58:00;;;;;;;7.82;4.90;;;;;;;3.03;67.92;97358.44;4962007;28;20216;-83
2021/01/24 11:00:27;;;;;;;12.80;5.30;;;;;;;3.12;67.88;97360.53;4961663;28;20223;-80
2021/01/24 11:02:53;;;;;;;7.90;4.93;;;;;;;3.18;67.53;97365.47;4946646;28;20233;-84
2021/01/24 11:05:19;;;;;;;7.32;5.75;;;;;;;3.33;68.27;97368.94;4962294;28;20232;-82
2021/01/24 11:07:46;;;;;;;6.18;4.43;;;;;;;3.20;67.85;97371.50;4951256;28;20200;-82
2021/01/24 11:10:21;;;;;;;6.97;5.22;;;;;;;3.33;67.80;97371.59;4949494;28;20247;-82
2021/01/24 11:12:47;;;;;;;6.75;5.20;;;;;;;3.10;67.52;97375.72;4965416;28;20269;-81
2021/01/24 11:15:13;;;;;;;7.82;4.65;;;;;;;3.11;67.33;97374.75;4979930;28;20228;-82
2021/01/24 11:17:39;;;;;;;6.95;5.65;;;;;;;3.04;67.63;97378.75;4997976;28;20238;-80
2021/01/24 11:20:08;;;;;;;6.30;4.45;;;;;;;3.11;67.20;97366.81;4966416;28;20578;-81
2021/01/24 11:22:36;;;;;;;8.35;5.97;;;;;;;3.28;67.27;97374.50;4950210;28;20224;-83
2021/01/24 11:25:04;;;;;;;7.50;5.18;;;;;;;3.38;66.65;97380.94;4958095;28;20364;-83
2021/01/24 11:27:32;;;;;;;6.13;4.88;;;;;;;3.40;66.65;97387.00;4964448;28;20227;-83
2021/01/24 11:29:58;;;;;;;7.40;4.05;;;;;;;3.25;66.35;97395.09;4971698;28;20231;-81
2021/01/24 11:32:24;;;;;;;6.90;4.18;;;;;;;3.07;66.94;97391.81;4954610;28;20453;-83
2021/01/24 11:35:08;;;;;;;5.55;4.78;;;;;;;3.37;67.52;97400.50;4961341;28;20220;-80
2021/01/24 11:37:35;;;;;;;6.97;5.03;;;;;;;3.55;66.62;97407.28;4956102;28;20248;-83
2021/01/24 11:40:06;;;;;;;5.60;4.63;;;;;;;3.47;66.68;97401.59;4970545;28;20329;-86
2021/01/24 11:42:33;;;;;;;7.20;5.28;;;;;;;3.48;65.63;97399.81;4950238;28;20311;-83
2021/01/24 11:45:01;;;;;;;6.93;5.97;;;;;;;3.63;65.67;97404.97;4954600;28;20624;-81
2021/01/24 11:47:28;;;;;;;7.35;4.60;;;;;;;3.51;64.67;97407.56;4967412;28;20200;-85
2021/01/24 11:49:55;;;;;;;7.25;4.40;;;;;;;3.32;65.13;97413.22;4956481;28;20709;-83